Time;durP1;ratioP1;P1;durP2;ratioP2;P2;SDS_P1;SDS_P2;PMS_P1;PMS_P2;Temp;Humidity;BMP_temperature;BMP_pressure;BME280_temperature;BME280_humidity;BME280_pressure;Samples;Min_cycle;Max_cycle;Signal;HPM_P1;HPM_P2
2021/05/08 00:02:21;;;;;;;1.20;1.10;;;22.90;29.60;;;;;;5010168;28;20237;-42
2021/05/08 00:04:47;;;;;;;1.20;1.10;;;22.90;29.60;;;;;;5009281;28;20222;-43
2021/05/08 00:07:13;;;;;;;1.53;1.43;;;22.90;29.60;;;;;;5011964;28;20339;-43
2021/05/08 00:09:39;;;;;;;1.20;1.10;;;22.90;30.20;;;;;;5012249;28;20206;-44
2021/05/08 00:12:05;;;;;;;1.37;1.27;;;22.90;29.60;;;;;;5012914;28;20211;-47
2021/05/08 00:14:31;;;;;;;1.80;1.20;;;22.90;29.70;;;;;;5011836;28;20218;-43
2021/05/08 00:16:57;;;;;;;1.13;1.10;;;22.90;29.60;;;;;;5013575;28;20195;-40
2021/05/08 00:19:23;;;;;;;2.13;1.10;;;22.90;29.70;;;;;;5012874;28;20254;-46
2021/05/08 00:21:49;;;;;;;1.23;1.13;;;22.90;29.60;;;;;;5013404;28;20221;-46
2021/05/08 00:24:15;;;;;;;3.13;1.30;;;22.90;29.80;;;;;;5012768;28;20230;-40
2021/05/08 00:26:41;;;;;;;1.15;1.05;;;22.90;29.70;;;;;;5011685;28;20624;-44
2021/05/08 00:29:07;;;;;;;1.00;1.00;;;22.90;29.70;;;;;;5010298;28;20212;-41
2021/05/08 00:31:33;;;;;;;1.20;1.10;;;22.90;29.70;;;;;;5013214;28;20591;-41
2021/05/08 00:33:59;;;;;;;1.67;1.27;;;22.90;29.80;;;;;;5012696;28;20769;-40
2021/05/08 00:36:25;;;;;;;2.43;1.20;;;22.90;29.80;;;;;;5013277;28;20211;-40
2021/05/08 00:38:51;;;;;;;1.00;1.00;;;22.90;29.80;;;;;;5012952;28;20242;-39
2021/05/08 00:41:17;;;;;;;1.10;1.00;;;22.90;29.80;;;;;;5013126;28;20246;-41
2021/05/08 00:43:43;;;;;;;1.30;1.20;;;22.90;29.80;;;;;;5012401;28;20226;-39
2021/05/08 00:46:09;;;;;;;1.40;1.10;;;22.90;29.70;;;;;;5007440;28;20203;-48
2021/05/08 00:48:35;;;;;;;1.43;1.20;;;22.90;29.80;;;;;;5024141;28;20283;-39
2021/05/08 00:51:01;;;;;;;1.37;1.27;;;22.90;29.90;;;;;;5013358;28;20206;-43
2021/05/08 00:53:27;;;;;;;1.70;1.10;;;22.90;29.90;;;;;;5011945;28;20225;-39
2021/05/08 00:55:53;;;;;;;1.10;1.10;;;22.90;29.80;;;;;;5012033;28;20628;-43
2021/05/08 00:58:19;;;;;;;1.70;1.30;;;22.90;29.90;;;;;;5012810;28;20721;-39
2021/05/08 01:00:45;;;;;;;1.30;1.20;;;22.90;29.90;;;;;;5012688;28;20270;-41
2021/05/08 01:03:11;;;;;;;1.40;1.10;;;22.90;29.90;;;;;;5013373;28;20234;-40
2021/05/08 01:05:37;;;;;;;2.10;1.10;;;22.90;30.00;;;;;;5011904;28;20199;-41
2021/05/08 01:08:03;;;;;;;1.23;1.13;;;22.90;29.90;;;;;;5000788;28;20192;-41
2021/05/08 01:10:29;;;;;;;1.57;1.30;;;22.90;30.00;;;;;;5010616;28;20676;-40
2021/05/08 01:12:55;;;;;;;1.30;1.20;;;22.90;30.00;;;;;;5011685;28;20225;-43
2021/05/08 01:15:21;;;;;;;1.17;1.10;;;22.90;29.90;;;;;;5011750;28;20199;-39
2021/05/08 01:17:47;;;;;;;1.07;1.07;;;22.90;30.00;;;;;;5012179;28;20747;-40
2021/05/08 01:20:13;;;;;;;1.93;1.30;;;22.90;30.00;;;;;;5012064;28;20234;-46
2021/05/08 01:22:39;;;;;;;3.63;1.30;;;22.90;30.00;;;;;;5012263;28;20202;-45
2021/05/08 01:25:05;;;;;;;1.23;1.20;;;22.90;30.00;;;;;;5012170;28;20202;-43
2021/05/08 01:27:31;;;;;;;1.20;1.10;;;22.90;30.00;;;;;;5012237;28;20210;-39
2021/05/08 01:29:56;;;;;;;1.17;1.10;;;22.90;30.00;;;;;;5011390;28;20215;-39
2021/05/08 01:32:22;;;;;;;1.57;1.10;;;22.90;30.00;;;;;;5012277;28;20265;-39
2021/05/08 01:34:48;;;;;;;1.03;1.03;;;22.90;30.00;;;;;;5011284;28;20219;-40
2021/05/08 01:37:15;;;;;;;1.37;1.10;;;22.90;30.00;;;;;;5012232;28;20199;-39
2021/05/08 01:39:40;;;;;;;1.10;1.00;;;22.90;30.00;;;;;;5011433;28;20231;-44
2021/05/08 01:42:06;;;;;;;1.13;1.03;;;22.90;30.00;;;;;;5011379;28;20253;-40
2021/05/08 01:44:32;;;;;;;1.30;0.90;;;22.90;30.60;;;;;;5011632;28;20219;-40
2021/05/08 01:46:58;;;;;;;1.03;1.00;;;22.90;30.00;;;;;;5011927;28;20222;-43
2021/05/08 01:49:24;;;;;;;1.10;1.10;;;22.90;30.00;;;;;;4999475;28;20203;-40
2021/05/08 01:51:50;;;;;;;1.37;1.17;;;22.90;30.00;;;;;;5011555;28;20273;-39
2021/05/08 01:54:16;;;;;;;1.30;1.20;;;22.90;30.00;;;;;;5011006;28;20223;-39
2021/05/08 01:56:42;;;;;;;1.90;1.20;;;22.90;30.00;;;;;;5011728;28;20206;-39
2021/05/08 01:59:08;;;;;;;1.15;1.05;;;22.90;30.00;;;;;;5011510;28;20203;-43
2021/05/08 02:01:34;;;;;;;2.00;1.10;;;22.90;30.00;;;;;;5011357;28;20257;-42
2021/05/08 02:04:00;;;;;;;2.10;1.40;;;22.90;30.00;;;;;;5010479;28;20230;-44
2021/05/08 02:06:26;;;;;;;1.30;1.20;;;22.90;30.10;;;;;;5011629;28;20195;-39
2021/05/08 02:08:52;;;;;;;1.20;1.10;;;22.90;30.00;;;;;;5010836;28;20530;-39
2021/05/08 02:11:18;;;;;;;1.27;1.03;;;22.90;30.10;;;;;;5010330;28;20300;-39
2021/05/08 02:13:44;;;;;;;1.73;1.20;;;22.90;30.10;;;;;;5009581;28;20532;-41
2021/05/08 02:16:10;;;;;;;1.43;1.10;;;22.90;30.10;;;;;;5009611;28;20199;-39
2021/05/08 02:18:36;;;;;;;1.30;1.20;;;22.90;30.10;;;;;;5010940;28;20230;-44
2021/05/08 02:21:02;;;;;;;1.38;1.00;;;22.90;30.10;;;;;;5011122;28;20234;-38
2021/05/08 02:23:28;;;;;;;1.13;1.07;;;22.90;30.10;;;;;;5010618;28;20273;-41
2021/05/08 02:25:54;;;;;;;1.20;1.10;;;22.90;30.20;;;;;;5011232;28;20199;-38
2021/05/08 02:28:20;;;;;;;1.10;1.10;;;22.90;30.20;;;;;;5007099;28;20214;-41
2021/05/08 02:30:46;;;;;;;0.97;0.97;;;22.90;30.20;;;;;;5009623;28;20236;-39
2021/05/08 02:33:12;;;;;;;1.20;1.10;;;22.90;30.30;;;;;;5010505;28;20226;-39
2021/05/08 02:35:38;;;;;;;1.30;1.00;;;22.90;30.20;;;;;;5010301;28;20740;-40
2021/05/08 02:38:04;;;;;;;1.10;1.00;;;22.90;30.20;;;;;;5010640;28;20218;-38
2021/05/08 02:40:30;;;;;;;1.00;1.00;;;22.90;30.20;;;;;;5010440;28;20231;-38
2021/05/08 02:42:56;;;;;;;1.17;1.07;;;22.90;30.20;;;;;;5010535;28;20218;-39
2021/05/08 02:45:22;;;;;;;1.30;1.20;;;22.90;30.20;;;;;;5009954;28;20195;-39
2021/05/08 02:47:48;;;;;;;1.20;1.10;;;22.90;30.30;;;;;;5011067;28;20257;-39
2021/05/08 02:50:14;;;;;;;1.10;0.97;;;22.90;30.30;;;;;;5010378;28;20211;-43
2021/05/08 02:52:40;;;;;;;1.15;1.10;;;22.90;30.30;;;;;;5010257;28;20246;-38
2021/05/08 02:55:06;;;;;;;1.23;1.13;;;22.90;30.30;;;;;;5009800;28;20275;-38
2021/05/08 02:57:32;;;;;;;2.47;1.33;;;22.90;30.60;;;;;;5010688;28;20218;-39
2021/05/08 02:59:58;;;;;;;1.48;1.38;;;22.90;30.90;;;;;;5010519;28;20565;-39
2021/05/08 03:02:24;;;;;;;0.90;0.90;;;22.90;30.80;;;;;;5010263;28;20219;-39
2021/05/08 03:04:50;;;;;;;3.60;1.20;;;22.80;30.60;;;;;;5010171;28;20195;-39
2021/05/08 03:07:16;;;;;;;1.13;1.00;;;22.80;30.50;;;;;;5010790;28;20241;-39
2021/05/08 03:09:42;;;;;;;1.77;1.20;;;22.80;30.50;;;;;;5008717;28;20301;-38
2021/05/08 03:12:08;;;;;;;1.80;1.37;;;22.80;30.50;;;;;;5009929;28;20555;-39
2021/05/08 03:14:34;;;;;;;1.00;1.00;;;22.80;30.50;;;;;;5009969;28;20214;-39
2021/05/08 03:17:00;;;;;;;1.17;1.03;;;22.80;30.50;;;;;;5010334;28;20204;-39
2021/05/08 03:19:26;;;;;;;2.07;1.10;;;22.90;30.60;;;;;;5010326;28;20215;-39
2021/05/08 03:21:52;;;;;;;1.37;1.27;;;22.80;30.50;;;;;;5009337;28;20232;-40
2021/05/08 03:24:18;;;;;;;1.27;1.17;;;22.80;30.50;;;;;;5009401;28;20616;-44
2021/05/08 03:26:44;;;;;;;1.30;1.20;;;22.80;30.50;;;;;;5009916;28;20210;-40
2021/05/08 03:29:10;;;;;;;1.57;1.20;;;22.80;31.30;;;;;;5010052;28;20199;-46
2021/05/08 03:31:36;;;;;;;1.23;1.13;;;22.90;30.70;;;;;;5010405;28;20262;-46
2021/05/08 03:34:02;;;;;;;2.53;1.20;;;22.80;30.50;;;;;;5009875;28;20223;-51
2021/05/08 03:36:28;;;;;;;2.23;1.10;;;22.80;30.50;;;;;;5009947;28;20609;-42
2021/05/08 03:38:53;;;;;;;1.80;1.00;;;22.80;30.40;;;;;;5010366;28;20204;-43
2021/05/08 03:41:21;;;;;;;1.10;1.00;;;22.80;30.40;;;;;;5010611;28;20318;-46
2021/05/08 03:43:47;;;;;;;7.00;1.20;;;22.80;30.50;;;;;;5013334;28;20666;-42
2021/05/08 03:46:13;;;;;;;1.30;0.93;;;22.80;30.50;;;;;;5014763;28;20264;-46
2021/05/08 03:48:38;;;;;;;1.77;1.23;;;22.80;30.50;;;;;;5013663;28;20265;-46
2021/05/08 03:51:04;;;;;;;1.23;1.13;;;22.80;30.60;;;;;;5013643;28;20701;-51
2021/05/08 03:53:31;;;;;;;1.60;1.30;;;22.80;30.50;;;;;;5012910;28;20219;-41
2021/05/08 03:55:57;;;;;;;1.10;1.00;;;22.80;30.60;;;;;;5014207;28;20309;-46
2021/05/08 03:58:25;;;;;;;1.10;1.00;;;22.80;30.50;;;;;;5013464;28;20203;-40
2021/05/08 04:00:51;;;;;;;1.20;1.00;;;22.80;30.60;;;;;;5013164;28;20230;-44
2021/05/08 04:03:17;;;;;;;0.93;0.90;;;22.80;30.50;;;;;;5013257;28;20283;-46
2021/05/08 04:05:43;;;;;;;2.10;1.20;;;22.80;30.60;;;;;;5010884;28;20871;-47
2021/05/08 04:08:09;;;;;;;1.20;1.10;;;22.80;30.50;;;;;;5009052;28;20198;-47
2021/05/08 04:10:35;;;;;;;1.27;1.00;;;22.80;30.50;;;;;;5024015;28;20199;-40
2021/05/08 04:13:01;;;;;;;1.00;1.00;;;22.80;30.50;;;;;;5012576;28;20238;-40
2021/05/08 04:15:27;;;;;;;1.63;1.10;;;22.80;31.20;;;;;;5012563;28;20202;-43
2021/05/08 04:17:53;;;;;;;1.23;1.10;;;22.80;30.50;;;;;;5012955;28;20726;-51
2021/05/08 04:20:19;;;;;;;1.33;1.23;;;22.80;30.50;;;;;;5013044;28;20234;-43
2021/05/08 04:22:45;;;;;;;1.20;1.10;;;22.90;30.60;;;;;;5013250;28;20222;-41
2021/05/08 04:25:11;;;;;;;0.90;0.90;;;22.80;30.50;;;;;;5012660;28;20493;-44
2021/05/08 04:27:37;;;;;;;1.33;1.00;;;22.80;30.50;;;;;;5013161;28;20203;-44
2021/05/08 04:30:03;;;;;;;2.33;1.30;;;22.80;30.50;;;;;;5003698;28;20223;-47
2021/05/08 04:32:29;;;;;;;1.10;1.00;;;22.80;30.40;;;;;;5000715;28;20239;-40
2021/05/08 04:34:55;;;;;;;1.10;1.00;;;22.80;30.40;;;;;;5012332;28;20265;-40
2021/05/08 04:37:21;;;;;;;1.20;1.10;;;22.80;30.50;;;;;;5013158;28;20666;-48
2021/05/08 04:39:47;;;;;;;1.20;1.10;;;22.90;30.50;;;;;;5013390;28;20234;-39
2021/05/08 04:42:13;;;;;;;1.17;1.07;;;22.90;30.50;;;;;;5012619;28;20596;-50
2021/05/08 04:44:39;;;;;;;1.07;0.90;;;22.90;30.50;;;;;;5012290;28;20207;-51
2021/05/08 04:47:05;;;;;;;1.00;1.00;;;22.90;30.50;;;;;;5012945;28;20265;-44
2021/05/08 04:49:31;;;;;;;1.20;1.10;;;22.90;30.50;;;;;;5012892;28;20559;-43
2021/05/08 04:51:57;;;;;;;3.50;1.00;;;22.90;30.50;;;;;;5012456;28;20227;-42
2021/05/08 04:54:23;;;;;;;0.80;0.80;;;22.90;30.60;;;;;;5011569;28;20210;-51
2021/05/08 04:56:49;;;;;;;0.97;0.97;;;22.90;30.60;;;;;;5012014;28;20203;-47
2021/05/08 04:59:15;;;;;;;1.00;1.00;;;22.90;30.60;;;;;;5012330;28;20210;-46
2021/05/08 05:01:41;;;;;;;0.90;0.90;;;22.80;30.50;;;;;;5012414;28;20720;-42
2021/05/08 05:04:07;;;;;;;1.43;1.13;;;22.90;30.60;;;;;;5011458;28;20339;-46
2021/05/08 05:06:33;;;;;;;1.40;1.00;;;22.90;30.60;;;;;;5012356;28;20221;-44
2021/05/08 05:08:59;;;;;;;1.30;1.10;;;22.90;30.60;;;;;;5011485;28;20249;-43
2021/05/08 05:11:26;;;;;;;1.23;1.10;;;22.90;30.60;;;;;;5011311;28;20235;-43
2021/05/08 05:13:52;;;;;;;1.40;1.17;;;22.90;30.60;;;;;;5011327;28;20236;-40
2021/05/08 05:16:18;;;;;;;1.77;1.17;;;22.90;30.60;;;;;;5012243;28;20225;-46
2021/05/08 05:18:44;;;;;;;1.13;1.10;;;22.90;30.70;;;;;;5011531;28;20199;-45
2021/05/08 05:21:10;;;;;;;1.00;1.00;;;22.90;30.60;;;;;;5012631;28;20234;-41
2021/05/08 05:23:36;;;;;;;1.17;1.08;;;22.90;30.60;;;;;;5011741;28;20199;-45
2021/05/08 05:26:02;;;;;;;1.10;1.00;;;22.90;30.60;;;;;;5010887;28;20575;-42
2021/05/08 05:28:28;;;;;;;0.90;0.90;;;22.90;30.60;;;;;;5011887;28;20207;-45
2021/05/08 05:30:54;;;;;;;1.80;0.97;;;22.90;30.60;;;;;;5011770;28;20211;-43
2021/05/08 05:33:20;;;;;;;1.70;1.00;;;22.90;30.60;;;;;;5011672;28;20219;-40
2021/05/08 05:35:46;;;;;;;1.80;1.00;;;22.90;30.60;;;;;;5011352;28;20199;-42
2021/05/08 05:38:12;;;;;;;1.10;1.00;;;22.90;30.60;;;;;;5011930;28;20203;-43
2021/05/08 05:40:38;;;;;;;1.77;1.20;;;22.90;30.60;;;;;;5011974;28;20234;-41
2021/05/08 05:43:04;;;;;;;0.97;0.90;;;22.90;30.60;;;;;;5011519;28;20579;-47
2021/05/08 05:45:29;;;;;;;1.70;1.00;;;22.90;30.50;;;;;;5010531;28;20218;-42
2021/05/08 05:47:55;;;;;;;0.90;0.90;;;22.90;30.50;;;;;;5011400;28;20203;-51
2021/05/08 05:50:21;;;;;;;1.20;1.10;;;22.90;30.50;;;;;;5011787;28;20206;-42
2021/05/08 05:52:47;;;;;;;1.23;1.00;;;22.90;30.50;;;;;;5011910;28;20218;-40
2021/05/08 05:55:13;;;;;;;1.00;1.00;;;22.90;30.60;;;;;;5010570;28;20198;-49
2021/05/08 05:57:39;;;;;;;1.30;1.07;;;22.90;30.50;;;;;;5010953;28;20546;-47
2021/05/08 06:00:05;;;;;;;1.30;1.10;;;22.90;30.50;;;;;;5011336;28;20230;-45
2021/05/08 06:02:33;;;;;;;1.00;1.00;;;22.90;30.50;;;;;;5011350;28;20226;-40
2021/05/08 06:04:59;;;;;;;1.20;1.10;;;22.90;30.50;;;;;;5009898;28;20198;-45
2021/05/08 06:07:25;;;;;;;1.07;0.80;;;22.90;30.50;;;;;;5011361;28;20264;-41
2021/05/08 06:09:51;;;;;;;0.90;0.90;;;22.90;30.50;;;;;;5011356;28;20528;-46
2021/05/08 06:12:17;;;;;;;1.30;1.10;;;22.90;30.50;;;;;;5009863;28;20237;-39
2021/05/08 06:14:43;;;;;;;1.37;0.97;;;22.90;30.50;;;;;;5010392;28;20213;-48
2021/05/08 06:17:09;;;;;;;1.07;0.97;;;22.90;30.50;;;;;;5010913;28;20210;-46
2021/05/08 06:19:35;;;;;;;1.00;1.00;;;22.90;30.60;;;;;;5010680;28;20220;-44
2021/05/08 06:22:01;;;;;;;1.10;1.00;;;22.90;30.60;;;;;;5011119;28;20592;-46
2021/05/08 06:24:27;;;;;;;0.87;0.87;;;22.90;30.50;;;;;;5010307;28;20210;-43
2021/05/08 06:26:53;;;;;;;1.27;1.00;;;22.90;30.60;;;;;;5011331;28;20237;-41
2021/05/08 06:29:19;;;;;;;1.23;0.90;;;22.90;30.50;;;;;;5010439;28;20206;-45
2021/05/08 06:31:45;;;;;;;0.93;0.93;;;22.90;30.50;;;;;;5004150;28;20228;-50
2021/05/08 06:34:11;;;;;;;1.10;1.00;;;22.90;30.60;;;;;;5009915;28;20218;-50
2021/05/08 06:36:37;;;;;;;1.23;1.13;;;22.90;30.60;;;;;;5010496;28;20238;-43
2021/05/08 06:39:03;;;;;;;1.20;1.00;;;22.90;30.60;;;;;;5010370;28;20565;-50
2021/05/08 06:41:29;;;;;;;1.67;1.00;;;22.90;30.60;;;;;;5011003;28;20746;-46
2021/05/08 06:43:55;;;;;;;1.00;1.00;;;22.90;30.50;;;;;;5003049;28;20211;-45
2021/05/08 06:46:21;;;;;;;1.00;0.90;;;22.90;30.50;;;;;;5005516;28;20214;-48
2021/05/08 06:48:47;;;;;;;2.07;1.03;;;23.00;30.70;;;;;;5003611;28;20228;-43
2021/05/08 06:51:13;;;;;;;0.97;0.90;;;23.00;31.30;;;;;;5010679;28;20345;-46
2021/05/08 06:53:40;;;;;;;1.00;0.90;;;23.00;31.50;;;;;;5010268;28;20226;-41
2021/05/08 06:56:06;;;;;;;1.17;1.07;;;23.00;31.50;;;;;;5010994;28;20217;-43
2021/05/08 06:58:32;;;;;;;2.47;1.00;;;23.00;31.50;;;;;;5010590;28;20207;-50
2021/05/08 07:00:58;;;;;;;0.90;0.90;;;23.00;31.60;;;;;;5010664;28;20233;-43
2021/05/08 07:03:24;;;;;;;1.35;1.02;;;23.00;31.50;;;;;;5013615;28;20260;-39
2021/05/08 07:05:50;;;;;;;1.77;1.00;;;23.00;31.70;;;;;;5007397;28;20207;-39
2021/05/08 07:08:16;;;;;;;1.00;1.00;;;23.00;31.60;;;;;;5004003;28;20202;-41
2021/05/08 07:10:42;;;;;;;4.53;1.20;;;23.00;31.70;;;;;;5007689;28;20681;-41
2021/05/08 07:13:08;;;;;;;1.10;1.00;;;23.00;31.70;;;;;;5009741;28;20212;-49
2021/05/08 07:15:34;;;;;;;2.20;0.93;;;22.90;31.40;;;;;;5011255;28;20575;-41
2021/05/08 07:18:00;;;;;;;2.10;1.00;;;23.00;31.40;;;;;;5013376;28;20202;-43
2021/05/08 07:20:26;;;;;;;1.73;1.37;;;23.00;31.20;;;;;;5011307;28;20230;-40
2021/05/08 07:22:52;;;;;;;0.90;0.90;;;23.00;31.30;;;;;;5014932;28;20225;-42
2021/05/08 07:25:18;;;;;;;2.17;1.10;;;23.10;31.20;;;;;;5019838;28;20218;-45
2021/05/08 07:27:44;;;;;;;1.20;1.10;;;23.20;31.70;;;;;;5023375;28;20328;-43
2021/05/08 07:30:10;;;;;;;1.43;1.23;;;23.30;31.30;;;;;;5028475;28;20206;-50
2021/05/08 07:32:37;;;;;;;1.48;1.00;;;23.20;31.00;;;;;;5030957;28;20301;-45
2021/05/08 07:35:03;;;;;;;1.67;1.20;;;23.10;30.90;;;;;;5015506;28;20194;-42
2021/05/08 07:37:29;;;;;;;2.87;1.20;;;23.10;31.60;;;;;;5015648;28;20209;-48
2021/05/08 07:39:55;;;;;;;1.80;1.23;;;23.20;32.00;;;;;;5029517;28;20218;-40
2021/05/08 07:42:21;;;;;;;2.00;1.10;;;23.20;32.30;;;;;;5013480;28;20250;-45
2021/05/08 07:44:47;;;;;;;5.90;1.25;;;23.30;32.20;;;;;;5016537;28;20620;-47
2021/05/08 07:47:13;;;;;;;2.38;1.48;;;23.20;32.00;;;;;;5018530;28;20199;-42
2021/05/08 07:49:39;;;;;;;3.63;1.47;;;23.20;31.90;;;;;;4998066;28;20211;-39
2021/05/08 07:52:05;;;;;;;3.83;1.07;;;23.10;32.10;;;;;;5006999;28;20223;-45
2021/05/08 07:54:31;;;;;;;3.42;1.13;;;23.10;32.40;;;;;;5013228;28;20256;-47
2021/05/08 07:56:57;;;;;;;2.00;1.20;;;23.10;32.60;;;;;;5014066;28;20293;-46
2021/05/08 07:59:23;;;;;;;1.47;1.03;;;23.10;32.90;;;;;;5011030;28;20210;-46
2021/05/08 08:01:49;;;;;;;4.93;1.33;;;23.10;32.90;;;;;;5012371;28;20235;-38
2021/05/08 08:04:15;;;;;;;2.50;1.40;;;23.10;32.70;;;;;;5012591;28;20214;-46
2021/05/08 08:06:41;;;;;;;6.67;2.20;;;23.00;32.80;;;;;;5012385;28;20648;-43
2021/05/08 08:09:07;;;;;;;3.40;2.17;;;23.00;31.80;;;;;;5010672;28;20229;-42
2021/05/08 08:11:33;;;;;;;2.70;2.13;;;21.10;28.60;;;;;;5009609;28;20606;-41
2021/05/08 08:13:59;;;;;;;2.47;1.80;;;21.50;28.10;;;;;;5012885;28;20194;-40
2021/05/08 08:16:25;;;;;;;2.27;1.57;;;21.90;26.60;;;;;;5013881;28;20202;-48
2021/05/08 08:18:51;;;;;;;3.00;1.70;;;22.10;27.20;;;;;;5013730;28;20206;-47
2021/05/08 08:21:17;;;;;;;3.70;1.50;;;22.30;27.80;;;;;;5014291;28;20244;-45
2021/05/08 08:23:43;;;;;;;1.80;1.40;;;22.50;28.60;;;;;;5012954;28;20395;-47
2021/05/08 08:26:09;;;;;;;1.90;1.57;;;22.60;28.80;;;;;;5007960;28;20746;-45
2021/05/08 08:28:35;;;;;;;1.97;1.40;;;22.70;28.90;;;;;;5012023;28;20198;-42
2021/05/08 08:31:01;;;;;;;2.27;1.40;;;22.70;28.90;;;;;;5022899;28;20219;-47
2021/05/08 08:33:27;;;;;;;1.70;1.60;;;22.80;29.10;;;;;;5021877;28;20265;-39
2021/05/08 08:35:54;;;;;;;1.80;1.10;;;22.80;29.30;;;;;;5012715;28;20199;-40
2021/05/08 08:38:20;;;;;;;1.73;1.40;;;22.90;29.60;;;;;;5012191;28;20199;-46
2021/05/08 08:40:46;;;;;;;1.80;1.40;;;23.00;29.60;;;;;;5010786;28;20315;-47
2021/05/08 08:43:12;;;;;;;2.37;1.40;;;23.10;30.00;;;;;;5012402;28;20242;-44
2021/05/08 08:45:38;;;;;;;1.33;1.10;;;23.10;30.00;;;;;;5011100;28;20242;-45
2021/05/08 08:48:04;;;;;;;1.23;1.03;;;23.10;30.10;;;;;;5011795;28;20198;-48
2021/05/08 08:50:32;;;;;;;2.03;1.20;;;23.10;30.00;;;;;;5012058;28;20255;-39
2021/05/08 08:52:58;;;;;;;2.08;1.30;;;23.10;29.90;;;;;;5011206;28;20286;-48
2021/05/08 08:55:23;;;;;;;1.48;1.15;;;23.00;29.80;;;;;;5011260;28;20191;-46
2021/05/08 08:57:49;;;;;;;1.90;1.27;;;23.00;29.80;;;;;;5012778;28;20635;-42
2021/05/08 09:00:15;;;;;;;1.50;1.40;;;23.00;29.70;;;;;;5011514;28;20238;-45
2021/05/08 09:02:41;;;;;;;2.00;1.30;;;23.00;29.50;;;;;;5011394;28;20210;-46
2021/05/08 09:05:07;;;;;;;2.88;1.50;;;23.00;29.40;;;;;;5006311;28;20647;-42
2021/05/08 09:07:33;;;;;;;2.57;1.40;;;23.00;29.20;;;;;;5030845;28;20209;-42
2021/05/08 09:09:59;;;;;;;1.60;1.50;;;23.00;29.20;;;;;;5017937;28;20203;-42
2021/05/08 09:12:30;;;;;;;3.47;1.40;;;23.00;29.80;;;;;;5010981;28;20580;-47
2021/05/08 09:14:56;;;;;;;2.77;1.40;;;23.00;30.00;;;;;;5022032;28;20631;-44
2021/05/08 09:17:22;;;;;;;2.72;1.45;;;23.00;30.20;;;;;;5017431;28;20217;-43
2021/05/08 09:19:49;;;;;;;4.90;1.83;;;23.10;29.80;;;;;;5011990;28;20214;-46
2021/05/08 09:22:15;;;;;;;3.03;1.70;;;23.00;29.80;;;;;;5012221;28;20199;-42
2021/05/08 09:24:41;;;;;;;1.50;1.40;;;23.00;29.80;;;;;;5012069;28;20269;-48
2021/05/08 09:27:07;;;;;;;1.33;1.20;;;23.00;30.00;;;;;;5012494;28;20215;-46
2021/05/08 09:29:34;;;;;;;3.00;1.50;;;23.00;30.20;;;;;;5012410;28;20210;-48
2021/05/08 09:32:00;;;;;;;2.25;1.30;;;22.90;30.20;;;;;;5012418;28;20210;-45
2021/05/08 09:34:27;;;;;;;1.33;1.10;;;23.00;30.20;;;;;;5011266;28;20215;-41
2021/05/08 09:36:53;;;;;;;1.97;1.23;;;23.00;30.10;;;;;;5011910;28;20207;-49
2021/05/08 09:39:19;;;;;;;2.23;1.00;;;22.90;30.00;;;;;;5005340;28;20744;-46
2021/05/08 09:41:45;;;;;;;1.60;1.40;;;23.00;29.90;;;;;;5012313;28;20239;-41
2021/05/08 09:44:11;;;;;;;1.13;1.03;;;23.00;29.90;;;;;;5010821;28;20812;-42
2021/05/08 09:46:37;;;;;;;2.27;1.37;;;23.00;30.00;;;;;;5011940;28;20195;-44
2021/05/08 09:49:03;;;;;;;1.23;1.13;;;23.00;29.90;;;;;;5012076;28;20218;-43
2021/05/08 09:51:29;;;;;;;2.17;1.20;;;23.00;29.90;;;;;;5011913;28;20227;-45
2021/05/08 09:53:55;;;;;;;1.10;1.10;;;23.00;29.90;;;;;;5010906;28;20203;-41
2021/05/08 09:56:21;;;;;;;2.60;1.50;;;23.00;29.80;;;;;;5011991;28;20268;-42
2021/05/08 09:58:46;;;;;;;1.20;1.20;;;23.00;29.80;;;;;;5012553;28;20230;-55
2021/05/08 10:01:12;;;;;;;1.40;1.30;;;23.00;29.90;;;;;;5011850;28;20318;-42
2021/05/08 10:03:39;;;;;;;1.30;1.20;;;23.00;29.80;;;;;;5010879;28;20203;-44
2021/05/08 10:06:05;;;;;;;1.20;1.10;;;23.00;29.90;;;;;;5023549;28;20199;-49
2021/05/08 10:08:31;;;;;;;2.47;1.10;;;23.00;29.90;;;;;;5010190;28;20225;-42
2021/05/08 10:10:57;;;;;;;1.63;1.40;;;23.00;29.80;;;;;;5011141;28;20246;-48
2021/05/08 10:13:24;;;;;;;1.50;1.40;;;23.00;29.80;;;;;;5010920;28;20203;-44
2021/05/08 10:15:50;;;;;;;1.23;1.20;;;23.00;29.80;;;;;;5011347;28;20191;-52
2021/05/08 10:18:16;;;;;;;3.35;1.50;;;23.00;29.80;;;;;;5010670;28;20207;-48
2021/05/08 10:20:42;;;;;;;1.40;1.30;;;23.00;29.70;;;;;;5011147;28;20234;-45
2021/05/08 10:23:08;;;;;;;1.88;1.10;;;23.00;29.80;;;;;;5011593;28;20273;-45
2021/05/08 10:25:34;;;;;;;1.20;1.10;;;23.00;29.90;;;;;;5010554;28;20202;-47
2021/05/08 10:28:00;;;;;;;1.95;1.40;;;23.00;30.00;;;;;;5012189;28;20203;-50
2021/05/08 10:30:26;;;;;;;2.03;1.37;;;23.00;29.90;;;;;;5011040;28;20285;-46
2021/05/08 10:32:52;;;;;;;1.63;1.43;;;23.00;29.80;;;;;;5011224;28;20206;-42
2021/05/08 10:35:18;;;;;;;2.17;1.20;;;23.00;29.40;;;;;;5010421;28;20223;-42
2021/05/08 10:37:44;;;;;;;2.13;1.30;;;23.00;29.30;;;;;;5011579;28;20199;-49
2021/05/08 10:40:11;;;;;;;1.50;1.40;;;23.00;29.30;;;;;;5011086;28;20235;-45
2021/05/08 10:42:37;;;;;;;1.45;1.10;;;23.00;29.40;;;;;;5010801;28;20243;-43
2021/05/08 10:45:03;;;;;;;1.20;1.10;;;23.00;28.90;;;;;;5010084;28;20807;-46
2021/05/08 10:47:29;;;;;;;1.30;1.20;;;23.00;28.80;;;;;;5010236;28;20290;-43
2021/05/08 10:49:55;;;;;;;1.55;1.13;;;23.00;28.80;;;;;;5020147;28;20223;-45
2021/05/08 10:52:21;;;;;;;1.00;1.00;;;23.00;28.80;;;;;;5010905;28;20251;-48
2021/05/08 10:54:48;;;;;;;1.45;0.95;;;23.00;28.80;;;;;;5023983;28;20234;-44
2021/05/08 10:57:14;;;;;;;1.00;1.00;;;23.00;28.90;;;;;;5010997;28;20207;-47
2021/05/08 10:59:40;;;;;;;1.08;1.08;;;23.00;29.00;;;;;;5016972;28;20214;-49
2021/05/08 11:02:07;;;;;;;1.30;1.20;;;23.00;29.10;;;;;;5025394;28;20196;-45
2021/05/08 11:04:33;;;;;;;1.00;1.00;;;23.00;29.10;;;;;;5010293;28;20242;-48
2021/05/08 11:06:59;;;;;;;1.20;1.10;;;23.00;29.10;;;;;;5015935;28;20207;-48
2021/05/08 11:09:25;;;;;;;2.07;1.10;;;23.00;29.20;;;;;;5006538;28;20258;-45
2021/05/08 11:11:51;;;;;;;1.20;1.10;;;23.00;29.30;;;;;;5010163;28;20242;-47
2021/05/08 11:14:17;;;;;;;1.40;1.30;;;23.00;29.40;;;;;;5009118;28;20589;-47
2021/05/08 11:16:43;;;;;;;1.15;1.05;;;23.00;29.40;;;;;;5018283;28;20201;-49
2021/05/08 11:19:09;;;;;;;1.15;1.15;;;23.00;29.40;;;;;;5029230;28;20199;-45
2021/05/08 11:21:34;;;;;;;1.25;1.15;;;23.00;29.40;;;;;;5010728;28;20572;-51
2021/05/08 11:24:01;;;;;;;1.85;1.40;;;23.00;29.40;;;;;;5011051;28;20234;-48
2021/05/08 11:26:28;;;;;;;1.30;1.10;;;23.00;29.80;;;;;;5012269;28;20233;-43
2021/05/08 11:28:54;;;;;;;4.47;1.33;;;23.10;29.70;;;;;;5010253;28;20278;-45
2021/05/08 11:31:20;;;;;;;1.40;1.10;;;23.00;29.30;;;;;;5010111;28;20246;-50
2021/05/08 11:33:46;;;;;;;2.00;1.20;;;23.00;29.50;;;;;;5012329;28;20195;-48
2021/05/08 11:36:12;;;;;;;1.95;1.35;;;23.00;28.80;;;;;;5006837;28;20555;-46
2021/05/08 11:38:38;;;;;;;3.55;1.52;;;23.00;28.00;;;;;;5026013;28;20264;-42
2021/05/08 11:41:04;;;;;;;2.33;1.40;;;23.00;27.70;;;;;;5027286;28;20238;-46
2021/05/08 11:43:30;;;;;;;3.10;1.43;;;23.00;27.10;;;;;;5005581;28;20269;-43
2021/05/08 11:45:56;;;;;;;2.72;1.83;;;22.90;26.40;;;;;;5002668;28;20199;-51
2021/05/08 11:48:22;;;;;;;2.97;1.88;;;22.90;26.20;;;;;;5010245;28;20407;-48
2021/05/08 11:50:48;;;;;;;2.47;1.98;;;22.90;25.10;;;;;;5016797;28;20223;-44
2021/05/08 11:53:14;;;;;;;3.57;1.90;;;22.90;24.60;;;;;;5012707;28;20202;-43
2021/05/08 11:55:40;;;;;;;2.93;1.50;;;22.90;25.70;;;;;;5009359;28;20235;-51
2021/05/08 11:58:06;;;;;;;4.17;1.70;;;22.90;25.10;;;;;;5009903;28;20257;-48
2021/05/08 12:00:32;;;;;;;1.63;1.53;;;22.80;24.30;;;;;;5010101;28;20632;-46
2021/05/08 12:02:58;;;;;;;2.25;1.90;;;22.90;24.10;;;;;;5011757;28;20191;-52
2021/05/08 12:05:24;;;;;;;4.93;2.10;;;22.90;24.50;;;;;;5016998;28;20562;-50
2021/05/08 12:07:50;;;;;;;2.70;1.93;;;22.90;23.10;;;;;;5013703;28;20198;-46
2021/05/08 12:10:16;;;;;;;3.90;2.47;;;22.80;24.00;;;;;;5018305;28;20254;-52
2021/05/08 12:12:42;;;;;;;2.70;1.80;;;22.80;23.90;;;;;;5009266;28;20623;-50
2021/05/08 12:15:08;;;;;;;2.53;1.63;;;22.80;23.60;;;;;;5011475;28;20202;-52
2021/05/08 12:17:34;;;;;;;1.50;1.40;;;22.90;23.90;;;;;;5012181;28;20203;-51
2021/05/08 12:20:00;;;;;;;2.40;1.40;;;22.90;24.10;;;;;;5012104;28;20233;-48
2021/05/08 12:22:26;;;;;;;1.50;1.40;;;22.90;23.40;;;;;;5014029;28;20199;-46
2021/05/08 12:24:52;;;;;;;1.40;1.27;;;22.80;23.10;;;;;;5009618;28;20248;-45
2021/05/08 12:27:18;;;;;;;1.57;1.30;;;22.80;22.70;;;;;;5005540;28;20200;-47
2021/05/08 12:29:44;;;;;;;3.07;1.30;;;22.80;22.30;;;;;;5007512;28;20729;-46
2021/05/08 12:32:10;;;;;;;1.33;1.23;;;22.80;22.20;;;;;;5013843;28;20206;-50
2021/05/08 12:34:36;;;;;;;1.23;1.10;;;22.80;22.30;;;;;;5010613;28;20237;-49
2021/05/08 12:37:02;;;;;;;1.40;1.30;;;22.70;22.10;;;;;;5010332;28;20209;-46
2021/05/08 12:39:28;;;;;;;1.60;1.10;;;22.80;22.70;;;;;;5013202;28;20238;-44
2021/05/08 12:41:54;;;;;;;2.23;1.30;;;22.80;22.30;;;;;;5008438;28;20658;-47